Time;durP1;ratioP1;P1;durP2;ratioP2;P2;SDS_P1;SDS_P2;PMS_P1;PMS_P2;Temp;Humidity;BMP_temperature;BMP_pressure;BME280_temperature;BME280_humidity;BME280_pressure;Samples;Min_cycle;Max_cycle;Signal;HPM_P1;HPM_P2
2023/10/30 00:03:14;;;;;;;9.60;3.50;;;22.70;69.10;;;;;;222213;1255;24325;-50
2023/10/30 00:08:18;;;;;;;7.30;3.50;;;22.70;68.60;;;;;;222142;1259;25372;-54
2023/10/30 00:13:22;;;;;;;7.30;3.80;;;22.90;68.40;;;;;;221878;1262;22609;-56
2023/10/30 00:18:28;;;;;;;3.90;3.30;;;22.80;67.60;;;;;;222054;1263;22528;-54
2023/10/30 00:23:32;;;;;;;5.90;3.70;;;22.80;68.50;;;;;;222086;1265;22552;-53
2023/10/30 00:28:37;;;;;;;4.60;3.10;;;22.70;68.30;;;;;;222001;1264;24382;-56
2023/10/30 00:33:41;;;;;;;5.90;3.60;;;22.70;68.20;;;;;;221860;1259;23980;-54
2023/10/30 00:38:45;;;;;;;3.40;3.10;;;22.70;68.10;;;;;;222247;1266;22639;-55
2023/10/30 00:43:49;;;;;;;4.80;3.80;;;22.70;68.10;;;;;;222069;1268;22506;-54
2023/10/30 00:48:53;;;;;;;4.20;3.50;;;22.60;68.50;;;;;;222224;1262;22548;-54
2023/10/30 00:53:58;;;;;;;8.20;3.70;;;22.60;68.00;;;;;;222197;1259;22875;-54
2023/10/30 00:59:03;;;;;;;5.00;3.60;;;22.60;68.00;;;;;;222297;1262;24229;-57
2023/10/30 01:04:07;;;;;;;14.10;5.10;;;22.60;68.00;;;;;;222582;1264;25638;-54
2023/10/30 01:09:13;;;;;;;5.00;3.30;;;22.60;67.90;;;;;;222194;1265;22597;-51
2023/10/30 01:14:17;;;;;;;6.80;4.20;;;22.60;68.30;;;;;;221778;1267;23174;-55
2023/10/30 01:19:21;;;;;;;4.80;3.10;;;22.60;68.20;;;;;;226568;1261;22714;-53
2023/10/30 01:24:26;;;;;;;3.20;3.00;;;22.60;67.60;;;;;;222493;1262;23900;-55
2023/10/30 01:29:30;;;;;;;5.40;3.30;;;22.60;67.40;;;;;;224377;1268;22524;-55
2023/10/30 01:34:34;;;;;;;4.10;3.20;;;22.60;67.50;;;;;;222127;1261;22530;-55
2023/10/30 01:39:39;;;;;;;6.20;3.50;;;22.50;67.50;;;;;;222196;1262;22626;-54
2023/10/30 01:44:57;;;;;;;3.40;3.00;;;22.50;68.10;;;;;;222277;1259;24209;-54
2023/10/30 01:50:02;;;;;;;3.60;2.80;;;22.50;67.80;;;;;;222096;1267;22533;-54
2023/10/30 01:55:08;;;;;;;2.80;2.60;;;22.50;68.30;;;;;;222192;1265;22508;-55
2023/10/30 02:00:15;;;;;;;3.80;2.60;;;22.40;67.80;;;;;;222294;1261;22668;-53
2023/10/30 02:05:19;;;;;;;3.00;2.80;;;22.40;67.70;;;;;;221745;1266;22527;-55
2023/10/30 02:10:23;;;;;;;4.00;2.90;;;22.40;68.10;;;;;;222023;1257;22534;-55
2023/10/30 02:15:28;;;;;;;2.60;2.40;;;22.50;68.30;;;;;;222074;1270;22527;-55
2023/10/30 02:20:32;;;;;;;3.30;3.00;;;22.40;67.90;;;;;;222175;1263;25476;-55
2023/10/30 02:25:38;;;;;;;5.10;3.20;;;22.40;67.90;;;;;;222154;1262;22522;-54
2023/10/30 02:30:42;;;;;;;5.60;3.30;;;22.40;68.10;;;;;;222004;1267;22518;-54
2023/10/30 02:35:46;;;;;;;3.40;2.50;;;22.40;67.80;;;;;;222114;1261;22563;-55
2023/10/30 02:40:50;;;;;;;7.30;3.70;;;22.30;67.80;;;;;;221709;1262;24213;-54
2023/10/30 02:45:54;;;;;;;4.60;3.40;;;22.40;67.90;;;;;;222175;1265;23934;-52
2023/10/30 02:50:59;;;;;;;3.60;3.10;;;22.40;67.90;;;;;;222121;1265;25527;-53
2023/10/30 02:56:04;;;;;;;3.70;2.70;;;22.40;67.90;;;;;;221773;1266;22518;-54
2023/10/30 03:01:08;;;;;;;4.10;3.10;;;22.40;68.20;;;;;;221869;1263;22601;-55
2023/10/30 03:06:12;;;;;;;4.20;2.80;;;22.30;68.10;;;;;;222044;1270;25406;-55
2023/10/30 03:11:17;;;;;;;2.80;2.60;;;22.30;68.00;;;;;;221891;1270;25351;-54
2023/10/30 03:16:21;;;;;;;4.80;3.60;;;22.30;68.40;;;;;;222129;1268;22512;-55
2023/10/30 03:21:25;;;;;;;3.40;3.10;;;22.30;68.20;;;;;;228402;1267;23827;-53
2023/10/30 03:26:29;;;;;;;3.80;2.80;;;22.50;67.60;;;;;;221660;1257;22627;-53
2023/10/30 03:31:34;;;;;;;2.60;2.40;;;22.40;67.40;;;;;;222278;1268;22567;-53
2023/10/30 03:36:38;;;;;;;3.10;2.80;;;22.40;67.90;;;;;;221766;1264;22603;-54
2023/10/30 03:41:44;;;;;;;3.70;2.70;;;22.30;68.10;;;;;;222088;1270;22535;-55
2023/10/30 03:46:48;;;;;;;3.10;2.40;;;22.30;68.30;;;;;;222287;1268;22514;-54
2023/10/30 03:51:53;;;;;;;3.30;2.60;;;22.30;68.00;;;;;;222008;1258;24046;-55
2023/10/30 03:56:57;;;;;;;2.50;2.30;;;22.20;68.20;;;;;;221892;1270;23043;-54
2023/10/30 04:02:02;;;;;;;3.30;3.00;;;22.20;68.30;;;;;;222169;1268;23318;-54
2023/10/30 04:07:09;;;;;;;3.50;2.70;;;22.20;68.20;;;;;;222128;1270;22518;-55
2023/10/30 04:12:13;;;;;;;4.00;2.60;;;22.20;67.60;;;;;;221877;1263;22509;-55
2023/10/30 04:17:17;;;;;;;4.70;2.60;;;22.10;68.10;;;;;;222006;1263;25231;-54
2023/10/30 04:22:22;;;;;;;3.50;2.60;;;22.10;68.00;;;;;;221928;1253;25136;-54
2023/10/30 04:27:26;;;;;;;2.70;2.50;;;22.10;68.10;;;;;;222096;1267;22652;-54
2023/10/30 04:32:30;;;;;;;3.70;2.90;;;22.10;68.20;;;;;;222113;1267;22501;-55
2023/10/30 04:37:35;;;;;;;2.70;2.50;;;22.10;68.10;;;;;;221900;1264;25716;-53
2023/10/30 04:42:39;;;;;;;2.40;2.00;;;22.10;68.10;;;;;;222317;1267;24161;-54
2023/10/30 04:47:46;;;;;;;3.80;2.50;;;22.10;68.00;;;;;;221818;1270;24373;-55
2023/10/30 04:52:51;;;;;;;2.80;2.60;;;22.10;68.00;;;;;;222136;1263;25380;-53
2023/10/30 04:57:55;;;;;;;4.20;2.60;;;22.00;68.20;;;;;;221930;1262;22654;-54
2023/10/30 05:02:59;;;;;;;3.90;3.00;;;22.10;68.10;;;;;;222004;1259;22778;-55
2023/10/30 05:08:04;;;;;;;2.90;2.60;;;22.00;68.40;;;;;;221903;1270;25351;-54
2023/10/30 05:13:09;;;;;;;2.70;2.50;;;22.00;68.00;;;;;;222149;1263;24188;-55
2023/10/30 05:18:13;;;;;;;2.70;2.30;;;22.00;68.20;;;;;;222059;1256;24685;-54
2023/10/30 05:23:18;;;;;;;3.20;2.30;;;22.00;68.30;;;;;;222175;1266;25369;-54
2023/10/30 05:28:22;;;;;;;2.80;2.30;;;22.00;68.20;;;;;;222112;1270;26658;-55
2023/10/30 05:33:28;;;;;;;3.20;2.60;;;22.00;68.20;;;;;;222002;1268;22875;-54
2023/10/30 05:38:32;;;;;;;5.20;2.30;;;21.90;68.30;;;;;;221935;1268;24332;-54
2023/10/30 05:43:37;;;;;;;3.30;2.60;;;21.90;68.10;;;;;;221832;1260;22574;-54
2023/10/30 05:48:41;;;;;;;6.90;2.60;;;22.00;68.20;;;;;;221840;1270;24237;-55
2023/10/30 05:53:47;;;;;;;2.60;2.40;;;21.90;68.30;;;;;;221773;1268;22543;-50
2023/10/30 05:58:51;;;;;;;3.00;2.20;;;21.90;68.20;;;;;;221923;1263;23428;-53
2023/10/30 06:03:56;;;;;;;2.80;2.30;;;22.00;68.30;;;;;;222200;1268;22636;-55
2023/10/30 06:09:00;;;;;;;3.90;2.60;;;21.90;68.40;;;;;;222065;1267;25312;-53
2023/10/30 06:14:04;;;;;;;2.40;2.20;;;21.90;68.20;;;;;;222500;1268;25199;-55
2023/10/30 06:19:10;;;;;;;2.60;2.20;;;21.90;68.60;;;;;;222120;1270;22511;-53
2023/10/30 06:24:15;;;;;;;2.40;2.20;;;21.90;68.20;;;;;;221901;1262;24300;-55
2023/10/30 06:29:19;;;;;;;2.60;2.40;;;21.90;68.20;;;;;;222384;1263;23610;-55
2023/10/30 06:34:23;;;;;;;2.40;2.20;;;21.90;68.00;;;;;;221754;1270;22712;-55
2023/10/30 06:39:28;;;;;;;5.40;2.60;;;21.90;68.20;;;;;;222353;1268;22511;-54
2023/10/30 06:44:32;;;;;;;5.50;3.00;;;22.00;68.40;;;;;;222070;1270;23055;-50
2023/10/30 06:49:36;;;;;;;4.50;2.20;;;22.10;69.30;;;;;;222119;1267;22604;-50
2023/10/30 06:54:40;;;;;;;5.20;2.80;;;22.10;69.60;;;;;;222037;1269;22591;-50
2023/10/30 06:59:49;;;;;;;6.60;3.00;;;22.20;70.20;;;;;;221888;1262;22529;-49
2023/10/30 07:04:53;;;;;;;3.40;2.80;;;22.40;70.20;;;;;;222127;1268;22626;-53
2023/10/30 07:09:58;;;;;;;3.70;3.40;;;22.50;69.20;;;;;;222054;1265;22607;-49
2023/10/30 07:15:02;;;;;;;7.50;2.70;;;22.60;69.00;;;;;;222175;1266;25184;-52
2023/10/30 07:20:07;;;;;;;3.30;2.20;;;22.60;69.00;;;;;;222231;1268;22996;-52
2023/10/30 07:25:11;;;;;;;7.30;2.90;;;22.70;68.70;;;;;;222101;1263;22518;-50
2023/10/30 07:30:15;;;;;;;4.90;2.70;;;22.70;68.50;;;;;;222021;1270;24308;-52
2023/10/30 07:35:20;;;;;;;3.50;2.70;;;22.70;68.80;;;;;;222216;1260;22524;-50
2023/10/30 07:40:26;;;;;;;6.60;2.10;;;22.80;68.60;;;;;;221827;1266;26646;-52
2023/10/30 07:45:30;;;;;;;6.30;2.50;;;22.70;68.70;;;;;;222334;1270;22518;-52
2023/10/30 07:50:38;;;;;;;6.70;2.40;;;22.70;69.20;;;;;;221987;1270;22808;-48
2023/10/30 07:55:42;;;;;;;6.90;2.30;;;22.80;69.00;;;;;;221932;1270;23010;-49
2023/10/30 08:00:46;;;;;;;11.10;3.30;;;22.80;69.10;;;;;;222187;1265;24224;-50
2023/10/30 08:06:01;;;;;;;7.80;2.20;;;22.80;68.60;;;;;;222041;1268;24323;-50
2023/10/30 08:11:05;;;;;;;6.40;2.80;;;22.90;68.40;;;;;;221546;1265;22632;-52
2023/10/30 08:16:10;;;;;;;5.50;2.70;;;22.70;65.60;;;;;;223800;1270;249715;-52
2023/10/30 08:21:14;;;;;;;6.90;2.50;;;22.70;65.60;;;;;;224842;1270;22519;-53
2023/10/30 08:26:18;;;;;;;4.40;2.70;;;22.80;66.10;;;;;;222308;1268;25614;-54
2023/10/30 08:31:23;;;;;;;5.60;2.40;;;22.70;66.30;;;;;;222052;1269;22507;-50
2023/10/30 08:36:27;;;;;;;6.40;2.70;;;22.70;66.80;;;;;;222015;1263;22680;-52
2023/10/30 08:41:33;;;;;;;5.30;2.30;;;22.70;67.60;;;;;;221900;1269;24344;-52
2023/10/30 08:46:37;;;;;;;7.20;2.40;;;22.60;67.20;;;;;;222116;1263;24280;-54
2023/10/30 08:51:42;;;;;;;3.20;2.90;;;22.70;67.10;;;;;;221776;1270;22531;-53
2023/10/30 08:57:06;;;;;;;4.90;2.60;;;22.70;67.30;;;;;;221980;1270;24205;-52
2023/10/30 09:02:25;;;;;;;3.70;2.00;;;22.70;67.30;;;;;;222010;1266;22497;-53
2023/10/30 09:07:30;;;;;;;5.80;3.00;;;22.70;67.20;;;;;;221716;1254;25309;-51
2023/10/30 09:12:34;;;;;;;4.40;2.80;;;22.70;67.10;;;;;;222038;1270;24308;-53
2023/10/30 09:17:38;;;;;;;6.80;2.80;;;22.70;67.00;;;;;;222155;1267;25229;-51
2023/10/30 09:22:42;;;;;;;5.50;3.30;;;22.70;67.30;;;;;;221796;1270;22532;-52
2023/10/30 09:27:48;;;;;;;12.40;4.80;;;22.80;67.60;;;;;;221919;1267;22518;-50
2023/10/30 09:32:52;;;;;;;9.50;3.40;;;22.80;67.10;;;;;;221954;1264;22515;-51
2023/10/30 09:37:57;;;;;;;10.20;3.50;;;22.90;67.10;;;;;;221931;1264;25322;-51
2023/10/30 09:43:09;;;;;;;9.80;3.70;;;23.00;66.80;;;;;;222233;1264;22542;-49
2023/10/30 09:48:18;;;;;;;10.20;3.60;;;23.00;67.10;;;;;;222059;1270;22531;-51
2023/10/30 09:53:24;;;;;;;11.40;4.30;;;23.20;66.40;;;;;;222155;1259;24383;-54
2023/10/30 09:58:29;;;;;;;11.60;4.10;;;23.20;66.20;;;;;;221873;1270;22662;-50
2023/10/30 10:03:34;;;;;;;14.70;4.30;;;23.30;66.30;;;;;;221985;1254;22679;-52
2023/10/30 10:08:43;;;;;;;12.60;4.20;;;23.40;65.70;;;;;;221965;1270;22598;-51
2023/10/30 10:13:48;;;;;;;11.70;4.70;;;23.50;65.70;;;;;;222276;1264;24252;-50
2023/10/30 10:19:25;;;;;;;13.80;4.70;;;23.60;65.20;;;;;;222044;1263;22515;-52
2023/10/30 10:24:32;;;;;;;10.70;4.60;;;23.70;65.00;;;;;;221873;1267;23258;-51
2023/10/30 10:29:37;;;;;;;12.50;5.70;;;23.70;65.50;;;;;;222031;1264;22673;-50
2023/10/30 10:34:41;;;;;;;11.30;4.60;;;23.80;66.10;;;;;;222039;1260;22616;-52
2023/10/30 10:39:53;;;;;;;11.30;4.80;;;23.90;66.30;;;;;;222000;1266;22648;-52
2023/10/30 10:44:59;;;;;;;11.80;4.90;;;23.90;65.70;;;;;;222108;1264;22477;-50
2023/10/30 10:50:04;;;;;;;13.40;4.60;;;23.90;66.20;;;;;;221841;1267;24347;-52
2023/10/30 10:55:09;;;;;;;12.40;4.20;;;24.00;66.30;;;;;;221862;1270;23631;-51
2023/10/30 11:00:15;;;;;;;9.90;4.80;;;24.00;65.60;;;;;;221806;1270;24269;-51
2023/10/30 11:05:26;;;;;;;13.30;4.30;;;24.10;65.30;;;;;;222147;1264;23884;-54
2023/10/30 11:10:42;;;;;;;11.00;3.90;;;24.10;65.00;;;;;;221856;1263;22615;-50
2023/10/30 11:15:56;;;;;;;8.80;3.60;;;24.20;65.00;;;;;;221980;1270;24410;-51
2023/10/30 11:21:17;;;;;;;9.80;3.70;;;24.20;64.40;;;;;;221924;1264;25315;-52
2023/10/30 11:26:36;;;;;;;9.30;4.10;;;24.30;64.40;;;;;;222104;1262;25917;-52
2023/10/30 11:32:14;;;;;;;12.00;3.90;;;24.10;64.60;;;;;;222299;1267;24262;-51
2023/10/30 11:37:23;;;;;;;11.20;3.70;;;24.20;64.40;;;;;;220998;1270;24340;-50
2023/10/30 11:42:32;;;;;;;7.60;3.90;;;24.30;64.20;;;;;;221263;1269;22657;-49
2023/10/30 11:47:37;;;;;;;10.50;3.60;;;24.30;64.20;;;;;;221193;1273;25399;-53
2023/10/30 11:52:44;;;;;;;8.60;3.80;;;24.50;63.70;;;;;;221076;1254;25511;-51
2023/10/30 11:57:48;;;;;;;6.80;3.50;;;24.40;64.00;;;;;;220869;1269;24391;-50
2023/10/30 12:02:54;;;;;;;7.40;3.30;;;24.50;63.50;;;;;;221054;1267;24269;-51
2023/10/30 12:07:59;;;;;;;11.20;3.70;;;24.60;63.30;;;;;;220844;1271;22524;-51
2023/10/30 12:13:04;;;;;;;8.40;3.40;;;24.60;63.60;;;;;;221424;1264;22573;-53
2023/10/30 12:18:08;;;;;;;7.10;3.70;;;24.50;63.80;;;;;;222068;1267;24466;-52
2023/10/30 12:23:15;;;;;;;9.30;3.70;;;24.50;63.60;;;;;;221975;1267;22766;-52
2023/10/30 12:28:22;;;;;;;7.30;3.50;;;24.50;63.80;;;;;;222344;1267;22543;-50
2023/10/30 12:33:26;;;;;;;7.00;3.30;;;24.40;64.00;;;;;;221847;1264;22669;-50
2023/10/30 12:38:30;;;;;;;7.40;3.30;;;24.40;64.00;;;;;;222238;1270;22525;-51
2023/10/30 12:43:39;;;;;;;7.60;3.10;;;24.40;64.00;;;;;;222098;1264;24203;-48
2023/10/30 12:48:43;;;;;;;5.50;3.30;;;24.30;64.10;;;;;;222208;1267;22517;-52
2023/10/30 12:53:47;;;;;;;7.60;3.30;;;24.30;64.40;;;;;;222138;1262;22602;-51
2023/10/30 12:58:51;;;;;;;8.50;3.00;;;24.30;64.20;;;;;;222076;1265;22526;-52
2023/10/30 13:03:55;;;;;;;6.20;3.20;;;24.30;64.20;;;;;;222088;1267;25322;-53
2023/10/30 13:09:00;;;;;;;5.00;3.00;;;24.20;64.20;;;;;;222102;1262;23890;-53
2023/10/30 13:14:04;;;;;;;6.30;3.00;;;24.20;64.40;;;;;;222212;1263;22548;-52
2023/10/30 13:19:08;;;;;;;7.30;3.20;;;24.10;64.40;;;;;;221949;1267;22767;-50
2023/10/30 13:24:12;;;;;;;5.20;3.30;;;24.10;64.40;;;;;;221992;1269;22511;-51
2023/10/30 13:29:17;;;;;;;4.50;2.70;;;24.10;64.60;;;;;;221757;1263;23938;-50
2023/10/30 13:34:21;;;;;;;5.90;3.10;;;24.00;64.60;;;;;;222075;1270;22526;-50
2023/10/30 13:39:26;;;;;;;4.70;2.60;;;24.00;65.40;;;;;;222013;1269;24199;-51
2023/10/30 13:44:30;;;;;;;5.10;2.70;;;24.00;64.70;;;;;;221728;1260;24273;-54
2023/10/30 13:49:35;;;;;;;3.10;2.50;;;24.00;64.80;;;;;;222145;1267;22518;-50
2023/10/30 13:54:39;;;;;;;3.90;2.40;;;24.00;65.30;;;;;;222002;1269;22559;-54
2023/10/30 13:59:43;;;;;;;5.40;2.90;;;23.80;66.10;;;;;;222371;1270;23199;-53
2023/10/30 14:04:48;;;;;;;5.90;3.10;;;23.70;66.50;;;;;;222113;1262;24361;-52
2023/10/30 14:09:53;;;;;;;7.70;2.90;;;23.70;67.00;;;;;;221719;1265;22628;-52
2023/10/30 14:14:57;;;;;;;3.60;2.50;;;23.60;66.80;;;;;;221898;1267;22554;-51
2023/10/30 14:20:02;;;;;;;3.60;2.30;;;23.60;67.70;;;;;;221864;1265;22514;-51
2023/10/30 14:25:08;;;;;;;3.80;2.70;;;23.60;68.10;;;;;;222030;1268;22580;-53
2023/10/30 14:30:13;;;;;;;4.40;2.70;;;23.50;68.60;;;;;;221764;1264;25479;-49
2023/10/30 14:35:17;;;;;;;5.70;2.60;;;23.50;68.50;;;;;;222027;1264;22623;-53
2023/10/30 14:40:21;;;;;;;4.30;2.30;;;23.50;68.80;;;;;;222066;1265;25307;-53
2023/10/30 14:45:26;;;;;;;4.80;3.00;;;23.50;68.70;;;;;;222162;1270;25371;-51
2023/10/30 14:50:30;;;;;;;6.90;3.00;;;23.60;68.50;;;;;;222174;1267;22521;-53
2023/10/30 14:55:34;;;;;;;4.20;2.70;;;23.60;68.70;;;;;;222121;1270;24047;-49
2023/10/30 15:00:39;;;;;;;3.90;2.40;;;23.50;68.80;;;;;;221971;1267;25494;-53
2023/10/30 15:05:46;;;;;;;4.70;2.50;;;23.40;68.90;;;;;;222178;1254;23146;-50
2023/10/30 15:10:54;;;;;;;4.50;3.00;;;23.50;68.90;;;;;;222196;1257;24889;-53
2023/10/30 15:15:58;;;;;;;2.40;2.00;;;23.40;69.10;;;;;;222064;1263;22520;-51
2023/10/30 15:21:03;;;;;;;4.30;2.60;;;23.40;68.60;;;;;;222085;1270;25361;-50
2023/10/30 15:26:08;;;;;;;3.00;2.50;;;23.40;69.00;;;;;;221836;1263;25342;-48
2023/10/30 15:31:12;;;;;;;5.20;2.70;;;23.30;69.20;;;;;;221938;1264;22542;-49
2023/10/30 15:36:17;;;;;;;3.10;2.10;;;23.30;69.40;;;;;;221836;1265;22532;-51
2023/10/30 15:41:21;;;;;;;3.60;2.20;;;23.30;69.30;;;;;;222114;1268;23943;-47
2023/10/30 15:46:25;;;;;;;2.80;2.60;;;23.30;69.30;;;;;;221797;1267;22545;-50
2023/10/30 15:51:32;;;;;;;5.80;2.80;;;23.20;69.30;;;;;;222084;1264;24255;-53
2023/10/30 15:56:37;;;;;;;3.50;3.00;;;23.30;69.40;;;;;;222266;1270;24252;-53
2023/10/30 16:01:46;;;;;;;4.10;2.30;;;23.20;69.80;;;;;;221751;1267;22520;-51
2023/10/30 16:06:50;;;;;;;4.60;2.60;;;23.20;69.70;;;;;;221902;1264;23958;-53
2023/10/30 16:11:54;;;;;;;4.20;2.80;;;23.20;69.80;;;;;;221703;1270;22609;-50
2023/10/30 16:17:16;;;;;;;3.30;2.60;;;23.10;70.00;;;;;;221787;1269;22797;-52
2023/10/30 16:22:21;;;;;;;3.50;2.80;;;23.10;70.50;;;;;;221872;1267;24196;-48
2023/10/30 16:27:26;;;;;;;5.20;3.00;;;23.10;70.50;;;;;;221691;1270;22639;-51
2023/10/30 16:32:31;;;;;;;4.00;2.60;;;23.10;70.50;;;;;;221730;1270;24966;-52
2023/10/30 16:37:35;;;;;;;4.40;3.20;;;23.00;70.40;;;;;;221913;1270;22648;-50
2023/10/30 16:42:40;;;;;;;5.90;3.30;;;23.00;70.40;;;;;;221771;1269;22535;-52
2023/10/30 16:47:44;;;;;;;4.50;2.50;;;23.00;71.10;;;;;;222038;1264;22511;-53
2023/10/30 16:52:48;;;;;;;7.00;3.40;;;23.00;71.00;;;;;;221959;1267;22977;-51
2023/10/30 16:57:52;;;;;;;5.80;3.10;;;23.00;71.00;;;;;;221899;1267;22664;-52
2023/10/30 17:02:56;;;;;;;4.20;2.80;;;22.90;70.80;;;;;;221750;1267;24297;-53
2023/10/30 17:08:01;;;;;;;3.60;2.90;;;22.90;71.20;;;;;;222100;1268;22513;-52
2023/10/30 17:13:08;;;;;;;3.50;3.00;;;22.90;71.70;;;;;;221969;1262;22543;-49
2023/10/30 17:18:12;;;;;;;5.70;3.70;;;22.90;71.20;;;;;;222128;1267;24207;-51
2023/10/30 17:23:17;;;;;;;5.60;3.50;;;22.80;70.90;;;;;;222123;1267;25439;-54
2023/10/30 17:28:21;;;;;;;4.80;2.80;;;22.80;71.10;;;;;;221979;1269;24376;-53
2023/10/30 17:33:25;;;;;;;5.20;2.90;;;22.80;70.70;;;;;;222239;1270;25391;-53
2023/10/30 17:38:30;;;;;;;3.70;3.20;;;22.80;71.00;;;;;;221979;1270;22517;-53
2023/10/30 17:43:34;;;;;;;4.30;2.90;;;22.70;71.00;;;;;;222127;1262;24348;-53
2023/10/30 17:48:39;;;;;;;3.40;3.00;;;22.70;70.90;;;;;;222463;1270;25231;-53
2023/10/30 17:53:44;;;;;;;3.60;2.80;;;22.70;70.80;;;;;;221887;1265;24245;-49
2023/10/30 17:58:48;;;;;;;4.00;2.90;;;22.70;71.10;;;;;;222127;1265;24296;-53
2023/10/30 18:03:54;;;;;;;5.80;3.10;;;22.70;70.70;;;;;;221880;1267;22536;-52
2023/10/30 18:08:59;;;;;;;4.70;3.10;;;22.70;70.80;;;;;;221973;1270;22517;-52
2023/10/30 18:14:04;;;;;;;3.60;2.90;;;22.70;70.60;;;;;;222197;1267;25337;-51
2023/10/30 18:19:12;;;;;;;3.80;3.30;;;22.70;70.50;;;;;;222116;1270;22514;-52
2023/10/30 18:24:20;;;;;;;3.60;2.70;;;22.60;70.60;;;;;;222088;1255;22549;-50
2023/10/30 18:29:29;;;;;;;3.70;3.20;;;22.60;70.80;;;;;;222113;1265;24179;-52
2023/10/30 18:34:34;;;;;;;4.40;2.90;;;22.60;70.70;;;;;;222611;1258;22530;-48
2023/10/30 18:39:41;;;;;;;4.80;2.90;;;22.60;70.70;;;;;;222355;1256;24347;-53
2023/10/30 18:44:48;;;;;;;3.20;2.90;;;22.60;70.30;;;;;;222493;1266;24268;-49
2023/10/30 18:49:54;;;;;;;3.20;3.00;;;22.60;70.30;;;;;;222317;1270;22521;-48
2023/10/30 18:54:59;;;;;;;5.20;2.70;;;22.50;70.50;;;;;;221734;1266;24186;-50
2023/10/30 19:00:07;;;;;;;4.00;3.30;;;22.60;69.90;;;;;;221978;1270;25230;-51
2023/10/30 19:05:13;;;;;;;4.00;3.20;;;22.60;69.90;;;;;;222134;1270;22515;-53
2023/10/30 19:10:18;;;;;;;5.10;3.30;;;22.50;69.80;;;;;;222271;1270;24229;-50
2023/10/30 19:15:27;;;;;;;4.00;3.00;;;22.50;69.90;;;;;;222219;1266;22518;-51
2023/10/30 19:20:34;;;;;;;4.00;3.40;;;22.50;70.40;;;;;;222291;1267;22520;-51
2023/10/30 19:25:39;;;;;;;3.90;3.10;;;22.50;69.70;;;;;;222024;1265;25445;-51
2023/10/30 19:30:45;;;;;;;7.20;3.20;;;22.60;70.90;;;;;;222096;1267;22514;-53
2023/10/30 19:35:52;;;;;;;4.10;2.40;;;22.70;70.00;;;;;;222034;1266;22518;-52
2023/10/30 19:40:58;;;;;;;4.20;3.20;;;22.80;70.00;;;;;;222367;1264;22636;-51
2023/10/30 19:46:04;;;;;;;10.80;3.30;;;23.00;69.90;;;;;;221932;1265;25289;-51
2023/10/30 19:51:09;;;;;;;5.90;3.60;;;23.00;70.00;;;;;;221712;1265;22509;-56
2023/10/30 19:56:17;;;;;;;8.90;4.10;;;23.00;70.20;;;;;;221791;1270;25489;-56
2023/10/30 20:01:23;;;;;;;10.50;3.30;;;23.10;69.70;;;;;;222192;1270;25924;-53
2023/10/30 20:06:30;;;;;;;5.80;3.30;;;23.20;69.80;;;;;;222561;1264;24187;-54
2023/10/30 20:11:39;;;;;;;9.80;3.70;;;23.20;69.60;;;;;;221943;1268;25572;-51
2023/10/30 20:16:44;;;;;;;6.30;4.40;;;23.20;69.60;;;;;;221690;1266;220445;-53
2023/10/30 20:21:49;;;;;;;5.80;4.00;;;23.30;71.10;;;;;;221703;1260;23900;-53
2023/10/30 20:26:54;;;;;;;7.90;4.10;;;23.50;71.50;;;;;;222130;1265;23124;-53
2023/10/30 20:32:02;;;;;;;8.50;3.90;;;23.60;71.20;;;;;;222223;1265;22511;-55
2023/10/30 20:37:08;;;;;;;11.80;3.70;;;23.50;71.10;;;;;;222048;1248;24382;-54
2023/10/30 20:42:14;;;;;;;9.90;4.10;;;23.40;71.30;;;;;;221833;1268;24253;-53
2023/10/30 20:47:19;;;;;;;7.60;3.50;;;23.30;71.10;;;;;;222240;1265;23644;-56
2023/10/30 20:52:27;;;;;;;5.10;3.60;;;23.30;71.10;;;;;;221968;1265;22835;-55
2023/10/30 20:57:32;;;;;;;9.30;4.10;;;23.40;70.30;;;;;;222141;1262;25232;-52
2023/10/30 21:02:37;;;;;;;6.80;3.80;;;23.50;69.80;;;;;;221849;1260;24197;-56
2023/10/30 21:07:41;;;;;;;8.80;3.60;;;23.40;70.00;;;;;;221927;1266;22658;-52
2023/10/30 21:12:46;;;;;;;8.20;3.90;;;23.30;70.00;;;;;;221668;1268;26053;-58
2023/10/30 21:17:50;;;;;;;8.10;3.70;;;23.30;70.00;;;;;;222465;1266;22558;-56
2023/10/30 21:22:54;;;;;;;8.40;3.90;;;23.30;69.60;;;;;;222074;1270;22533;-55
2023/10/30 21:27:59;;;;;;;7.60;3.80;;;23.40;69.20;;;;;;221928;1266;22646;-55
2023/10/30 21:33:04;;;;;;;12.60;4.10;;;23.50;69.00;;;;;;222058;1266;22790;-54
2023/10/30 21:38:08;;;;;;;9.70;3.90;;;23.40;70.80;;;;;;221867;1267;22987;-51
2023/10/30 21:43:12;;;;;;;9.20;4.40;;;23.50;70.70;;;;;;222083;1265;22519;-56
2023/10/30 21:48:20;;;;;;;7.60;4.00;;;23.60;70.60;;;;;;222133;1270;24205;-56
2023/10/30 21:53:24;;;;;;;16.40;4.20;;;23.40;72.00;;;;;;222089;1266;25294;-55
2023/10/30 21:58:28;;;;;;;13.50;4.10;;;23.40;71.10;;;;;;221829;1262;22742;-56
2023/10/30 22:03:32;;;;;;;9.00;4.30;;;23.40;71.00;;;;;;222375;1268;23138;-55
2023/10/30 22:08:37;;;;;;;7.00;3.50;;;23.50;70.50;;;;;;222124;1263;23324;-57
2023/10/30 22:13:41;;;;;;;9.70;3.80;;;23.30;70.90;;;;;;222133;1267;23007;-55
2023/10/30 22:18:46;;;;;;;6.10;4.00;;;23.20;71.80;;;;;;221926;1262;22521;-55
2023/10/30 22:23:50;;;;;;;7.10;3.70;;;23.10;71.50;;;;;;222137;1267;22521;-57
2023/10/30 22:28:54;;;;;;;6.20;4.00;;;23.10;71.40;;;;;;221936;1270;22522;-56
2023/10/30 22:33:58;;;;;;;10.40;3.80;;;23.10;71.30;;;;;;222031;1268;24194;-55
2023/10/30 22:39:03;;;;;;;5.80;4.20;;;23.00;71.40;;;;;;221956;1270;22676;-54
2023/10/30 22:44:08;;;;;;;6.40;3.80;;;23.00;71.10;;;;;;221876;1269;22517;-55
2023/10/30 22:49:12;;;;;;;8.00;3.30;;;23.00;70.90;;;;;;222163;1268;22591;-55
2023/10/30 22:54:16;;;;;;;8.10;3.70;;;22.90;70.70;;;;;;221919;1267;24372;-57
2023/10/30 22:59:20;;;;;;;9.00;3.50;;;22.90;70.20;;;;;;221856;1256;22512;-55
2023/10/30 23:04:24;;;;;;;4.80;3.30;;;22.90;70.30;;;;;;222007;1258;25493;-55
2023/10/30 23:09:29;;;;;;;5.90;4.00;;;23.00;72.20;;;;;;221956;1263;25285;-56
2023/10/30 23:14:34;;;;;;;7.70;3.50;;;23.10;73.00;;;;;;222201;1269;22514;-59
2023/10/30 23:19:38;;;;;;;6.40;3.40;;;23.10;72.30;;;;;;222368;1265;22505;-58
2023/10/30 23:24:42;;;;;;;5.00;3.10;;;23.00;72.00;;;;;;222417;1267;24233;-58
2023/10/30 23:29:46;;;;;;;4.90;3.00;;;23.00;72.00;;;;;;221833;1270;22782;-58
2023/10/30 23:34:51;;;;;;;5.70;3.30;;;22.90;71.80;;;;;;222040;1263;22532;-58
2023/10/30 23:39:55;;;;;;;4.40;3.10;;;22.90;71.90;;;;;;222070;1268;22652;-56
2023/10/30 23:45:00;;;;;;;7.20;4.00;;;22.90;71.40;;;;;;222011;1265;25319;-58
2023/10/30 23:50:05;;;;;;;4.60;3.10;;;22.90;71.30;;;;;;222152;1263;24386;-63
2023/10/30 23:55:09;;;;;;;5.40;3.20;;;22.80;71.60;;;;;;222154;1268;24485;-58
